sensor_id;sensor_type;location;lat;lon;timestamp;temperature;humidity
13264;DHT22;6700;51.988;7.646;2023-11-19T13:18:56;12.10;99.90
13264;DHT22;6700;51.988;7.646;2023-11-19T13:21:23;12.10;99.90
13264;DHT22;6700;51.988;7.646;2023-11-19T13:23:50;12.00;99.90
13264;DHT22;6700;51.988;7.646;2023-11-19T13:26:17;12.00;99.90
13264;DHT22;6700;51.988;7.646;2023-11-19T13:28:43;12.00;99.90
13264;DHT22;6700;51.988;7.646;2023-11-19T13:31:10;12.00;99.90
13264;DHT22;6700;51.988;7.646;2023-11-19T13:33:37;11.90;99.90
13264;DHT22;6700;51.988;7.646;2023-11-19T13:36:04;11.90;99.90
13264;DHT22;6700;51.988;7.646;2023-11-19T13:38:34;11.90;99.90
13264;DHT22;6700;51.988;7.646;2023-11-19T13:41:04;11.80;99.90
13264;DHT22;6700;51.988;7.646;2023-11-19T13:43:31;11.80;99.90
13264;DHT22;6700;51.988;7.646;2023-11-19T13:45:58;11.80;99.90
13264;DHT22;6700;51.988;7.646;2023-11-19T13:48:25;11.70;99.90
13264;DHT22;6700;51.988;7.646;2023-11-19T13:50:53;11.70;99.90
13264;DHT22;6700;51.988;7.646;2023-11-19T13:53:20;11.70;99.90
13264;DHT22;6700;51.988;7.646;2023-11-19T13:55:48;11.60;99.90
13264;DHT22;6700;51.988;7.646;2023-11-19T13:58:15;11.60;99.90
13264;DHT22;6700;51.988;7.646;2023-11-19T14:00:42;11.60;99.90
13264;DHT22;6700;51.988;7.646;2023-11-19T14:03:09;11.60;99.90
13264;DHT22;6700;51.988;7.646;2023-11-19T14:05:38;11.60;99.90
13264;DHT22;6700;51.988;7.646;2023-11-19T14:08:05;11.60;99.90
13264;DHT22;6700;51.988;7.646;2023-11-19T14:10:49;11.50;99.90
13264;DHT22;6700;51.988;7.646;2023-11-19T14:13:16;11.50;99.90
13264;DHT22;6700;51.988;7.646;2023-11-19T14:15:42;11.60;99.90
13264;DHT22;6700;51.988;7.646;2023-11-19T14:18:11;11.70;99.90
13264;DHT22;6700;51.988;7.646;2023-11-19T14:20:38;11.80;99.90
13264;DHT22;6700;51.988;7.646;2023-11-19T14:23:05;11.80;99.90
13264;DHT22;6700;51.988;7.646;2023-11-19T14:25:32;11.70;99.90
13264;DHT22;6700;51.988;7.646;2023-11-19T14:27:59;11.70;99.90
13264;DHT22;6700;51.988;7.646;2023-11-19T14:30:25;11.70;99.90
13264;DHT22;6700;51.988;7.646;2023-11-19T14:32:53;11.70;99.90
13264;DHT22;6700;51.988;7.646;2023-11-19T14:35:20;11.70;99.90
13264;DHT22;6700;51.988;7.646;2023-11-19T14:37:47;11.80;99.90
13264;DHT22;6700;51.988;7.646;2023-11-19T14:40:13;11.80;99.90
13264;DHT22;6700;51.988;7.646;2023-11-19T14:42:40;11.80;99.90
13264;DHT22;6700;51.988;7.646;2023-11-19T14:45:07;11.80;99.90
13264;DHT22;6700;51.988;7.646;2023-11-19T14:47:34;11.80;99.90
13264;DHT22;6700;51.988;7.646;2023-11-19T14:50:01;11.80;99.90
13264;DHT22;6700;51.988;7.646;2023-11-19T14:52:28;11.80;99.90
13264;DHT22;6700;51.988;7.646;2023-11-19T14:54:55;11.80;99.90
13264;DHT22;6700;51.988;7.646;2023-11-19T14:57:24;11.80;99.90
13264;DHT22;6700;51.988;7.646;2023-11-19T14:59:50;11.80;99.90
13264;DHT22;6700;51.988;7.646;2023-11-19T15:02:17;11.70;99.90
13264;DHT22;6700;51.988;7.646;2023-11-19T15:04:44;11.70;99.90
13264;DHT22;6700;51.988;7.646;2023-11-19T15:07:11;11.70;99.90
13264;DHT22;6700;51.988;7.646;2023-11-19T15:09:38;11.70;99.90
13264;DHT22;6700;51.988;7.646;2023-11-19T15:12:05;11.60;99.90
13264;DHT22;6700;51.988;7.646;2023-11-19T15:14:31;11.60;99.90
13264;DHT22;6700;51.988;7.646;2023-11-19T15:16:58;11.60;99.90
13264;DHT22;6700;51.988;7.646;2023-11-19T15:19:25;11.60;99.90
13264;DHT22;6700;51.988;7.646;2023-11-19T15:21:51;11.50;99.90
13264;DHT22;6700;51.988;7.646;2023-11-19T15:24:18;11.50;99.90
13264;DHT22;6700;51.988;7.646;2023-11-19T15:26:45;11.40;99.90
13264;DHT22;6700;51.988;7.646;2023-11-19T15:29:11;11.30;99.90
13264;DHT22;6700;51.988;7.646;2023-11-19T15:31:38;11.20;99.90
13264;DHT22;6700;51.988;7.646;2023-11-19T15:34:05;11.20;99.90
13264;DHT22;6700;51.988;7.646;2023-11-19T15:36:34;11.10;99.90
13264;DHT22;6700;51.988;7.646;2023-11-19T15:39:03;11.00;99.90
13264;DHT22;6700;51.988;7.646;2023-11-19T15:41:31;11.00;99.90
13264;DHT22;6700;51.988;7.646;2023-11-19T15:43:59;11.00;99.90
13264;DHT22;6700;51.988;7.646;2023-11-19T15:46:26;10.90;99.90
13264;DHT22;6700;51.988;7.646;2023-11-19T15:48:53;10.90;99.90
13264;DHT22;6700;51.988;7.646;2023-11-19T15:51:19;10.80;99.90
13264;DHT22;6700;51.988;7.646;2023-11-19T15:53:47;10.80;99.90
13264;DHT22;6700;51.988;7.646;2023-11-19T15:56:14;10.80;99.90
13264;DHT22;6700;51.988;7.646;2023-11-19T15:58:41;10.70;99.90
13264;DHT22;6700;51.988;7.646;2023-11-19T16:01:08;10.60;99.90
13264;DHT22;6700;51.988;7.646;2023-11-19T16:03:36;10.70;99.90
13264;DHT22;6700;51.988;7.646;2023-11-19T16:06:07;10.70;99.90
13264;DHT22;6700;51.988;7.646;2023-11-19T16:08:38;10.70;99.90
13264;DHT22;6700;51.988;7.646;2023-11-19T16:11:05;10.70;99.90
13264;DHT22;6700;51.988;7.646;2023-11-19T16:13:33;10.70;99.90
13264;DHT22;6700;51.988;7.646;2023-11-19T16:16:01;10.70;99.90
13264;DHT22;6700;51.988;7.646;2023-11-19T16:18:27;10.80;99.90
13264;DHT22;6700;51.988;7.646;2023-11-19T16:20:55;10.70;99.90
13264;DHT22;6700;51.988;7.646;2023-11-19T16:23:26;10.70;99.90
13264;DHT22;6700;51.988;7.646;2023-11-19T16:25:54;10.70;99.90
13264;DHT22;6700;51.988;7.646;2023-11-19T16:28:21;10.70;99.90
13264;DHT22;6700;51.988;7.646;2023-11-19T16:30:53;10.70;99.90
13264;DHT22;6700;51.988;7.646;2023-11-19T16:33:20;10.80;99.90
13264;DHT22;6700;51.988;7.646;2023-11-19T16:35:56;10.80;99.90
13264;DHT22;6700;51.988;7.646;2023-11-19T16:38:27;10.80;99.90
13264;DHT22;6700;51.988;7.646;2023-11-19T16:40:54;10.80;99.90
13264;DHT22;6700;51.988;7.646;2023-11-19T16:43:20;10.80;99.90
13264;DHT22;6700;51.988;7.646;2023-11-19T16:45:47;10.80;99.90
13264;DHT22;6700;51.988;7.646;2023-11-19T16:48:13;10.90;99.90
13264;DHT22;6700;51.988;7.646;2023-11-19T16:50:40;10.90;99.90
13264;DHT22;6700;51.988;7.646;2023-11-19T16:53:07;10.90;99.90
13264;DHT22;6700;51.988;7.646;2023-11-19T16:55:35;10.90;99.90
13264;DHT22;6700;51.988;7.646;2023-11-19T16:58:01;10.90;99.90
13264;DHT22;6700;51.988;7.646;2023-11-19T17:00:28;10.90;99.90
13264;DHT22;6700;51.988;7.646;2023-11-19T17:02:55;10.80;99.90
13264;DHT22;6700;51.988;7.646;2023-11-19T17:05:25;10.80;99.90
13264;DHT22;6700;51.988;7.646;2023-11-19T17:07:54;10.70;99.90
13264;DHT22;6700;51.988;7.646;2023-11-19T17:10:21;10.70;99.90
13264;DHT22;6700;51.988;7.646;2023-11-19T17:12:49;10.70;99.90
13264;DHT22;6700;51.988;7.646;2023-11-19T17:15:16;10.70;99.90
13264;DHT22;6700;51.988;7.646;2023-11-19T17:17:43;10.70;99.90
13264;DHT22;6700;51.988;7.646;2023-11-19T17:20:10;10.70;99.90
13264;DHT22;6700;51.988;7.646;2023-11-19T17:22:38;10.70;99.90
13264;DHT22;6700;51.988;7.646;2023-11-19T17:25:05;10.70;99.90
13264;DHT22;6700;51.988;7.646;2023-11-19T17:27:33;10.70;99.90
13264;DHT22;6700;51.988;7.646;2023-11-19T17:30:00;10.70;99.90
13264;DHT22;6700;51.988;7.646;2023-11-19T17:32:27;10.70;99.90
13264;DHT22;6700;51.988;7.646;2023-11-19T17:34:54;10.70;99.90
13264;DHT22;6700;51.988;7.646;2023-11-19T17:37:21;10.70;99.90
13264;DHT22;6700;51.988;7.646;2023-11-19T17:39:48;10.70;99.90
13264;DHT22;6700;51.988;7.646;2023-11-19T17:42:15;10.70;99.90
13264;DHT22;6700;51.988;7.646;2023-11-19T17:44:42;10.70;99.90
13264;DHT22;6700;51.988;7.646;2023-11-19T17:47:09;10.70;99.90
13264;DHT22;6700;51.988;7.646;2023-11-19T17:49:35;10.70;99.90
13264;DHT22;6700;51.988;7.646;2023-11-19T17:52:06;10.80;99.90
13264;DHT22;6700;51.988;7.646;2023-11-19T17:54:34;10.80;99.90
13264;DHT22;6700;51.988;7.646;2023-11-19T17:57:00;10.80;99.90
13264;DHT22;6700;51.988;7.646;2023-11-19T17:59:28;10.80;99.90
13264;DHT22;6700;51.988;7.646;2023-11-19T18:01:55;10.90;99.90
13264;DHT22;6700;51.988;7.646;2023-11-19T18:04:26;10.90;99.90
13264;DHT22;6700;51.988;7.646;2023-11-19T18:06:55;10.80;99.90
13264;DHT22;6700;51.988;7.646;2023-11-19T18:09:22;10.80;99.90
13264;DHT22;6700;51.988;7.646;2023-11-19T18:11:50;10.80;99.90
13264;DHT22;6700;51.988;7.646;2023-11-19T18:14:17;10.80;99.90
13264;DHT22;6700;51.988;7.646;2023-11-19T18:16:44;10.80;99.90
13264;DHT22;6700;51.988;7.646;2023-11-19T18:19:11;10.80;99.90
13264;DHT22;6700;51.988;7.646;2023-11-19T18:21:38;10.90;99.90
13264;DHT22;6700;51.988;7.646;2023-11-19T18:24:06;10.90;99.90
13264;DHT22;6700;51.988;7.646;2023-11-19T18:26:33;10.80;99.90
13264;DHT22;6700;51.988;7.646;2023-11-19T18:29:02;10.80;99.90
13264;DHT22;6700;51.988;7.646;2023-11-19T18:31:30;10.80;99.90
13264;DHT22;6700;51.988;7.646;2023-11-19T18:33:59;10.80;99.90
13264;DHT22;6700;51.988;7.646;2023-11-19T18:36:25;10.80;99.90
13264;DHT22;6700;51.988;7.646;2023-11-19T18:38:52;10.80;99.90
13264;DHT22;6700;51.988;7.646;2023-11-19T18:41:19;10.80;99.90
13264;DHT22;6700;51.988;7.646;2023-11-19T18:43:46;10.80;99.90
13264;DHT22;6700;51.988;7.646;2023-11-19T18:46:13;10.80;99.90
13264;DHT22;6700;51.988;7.646;2023-11-19T18:48:39;10.80;99.90
13264;DHT22;6700;51.988;7.646;2023-11-19T18:51:06;10.80;99.90
13264;DHT22;6700;51.988;7.646;2023-11-19T18:53:33;10.80;99.90
13264;DHT22;6700;51.988;7.646;2023-11-19T18:56:00;10.80;99.90
13264;DHT22;6700;51.988;7.646;2023-11-19T18:58:27;10.80;99.90
13264;DHT22;6700;51.988;7.646;2023-11-19T19:00:53;10.80;99.90
13264;DHT22;6700;51.988;7.646;2023-11-19T19:03:20;10.70;99.90
13264;DHT22;6700;51.988;7.646;2023-11-19T19:05:49;10.70;99.90
13264;DHT22;6700;51.988;7.646;2023-11-19T19:08:16;10.70;99.90
13264;DHT22;6700;51.988;7.646;2023-11-19T19:10:44;10.70;99.90
13264;DHT22;6700;51.988;7.646;2023-11-19T19:13:11;10.70;99.90
13264;DHT22;6700;51.988;7.646;2023-11-19T19:15:38;10.60;99.90
13264;DHT22;6700;51.988;7.646;2023-11-19T19:18:05;10.60;99.90
13264;DHT22;6700;51.988;7.646;2023-11-19T19:20:32;10.60;99.90
13264;DHT22;6700;51.988;7.646;2023-11-19T19:22:59;10.60;99.90
13264;DHT22;6700;51.988;7.646;2023-11-19T19:25:26;10.60;99.90
13264;DHT22;6700;51.988;7.646;2023-11-19T19:27:55;10.60;99.90
13264;DHT22;6700;51.988;7.646;2023-11-19T19:30:41;10.60;99.90
13264;DHT22;6700;51.988;7.646;2023-11-19T19:33:09;10.60;99.90
13264;DHT22;6700;51.988;7.646;2023-11-19T19:35:36;10.60;99.90
13264;DHT22;6700;51.988;7.646;2023-11-19T19:38:02;10.50;99.90
13264;DHT22;6700;51.988;7.646;2023-11-19T19:40:29;10.60;99.90
13264;DHT22;6700;51.988;7.646;2023-11-19T19:42:56;10.50;99.90
13264;DHT22;6700;51.988;7.646;2023-11-19T19:45:25;10.60;99.90
13264;DHT22;6700;51.988;7.646;2023-11-19T19:47:51;10.50;99.90
13264;DHT22;6700;51.988;7.646;2023-11-19T19:50:19;10.50;99.90
13264;DHT22;6700;51.988;7.646;2023-11-19T19:52:46;10.50;99.90
13264;DHT22;6700;51.988;7.646;2023-11-19T19:55:13;10.50;99.90
13264;DHT22;6700;51.988;7.646;2023-11-19T19:57:40;10.60;99.90
13264;DHT22;6700;51.988;7.646;2023-11-19T20:00:06;10.50;99.90
13264;DHT22;6700;51.988;7.646;2023-11-19T20:02:41;10.60;99.90
13264;DHT22;6700;51.988;7.646;2023-11-19T20:05:08;10.50;99.90
13264;DHT22;6700;51.988;7.646;2023-11-19T20:07:39;10.50;99.90
13264;DHT22;6700;51.988;7.646;2023-11-19T20:10:06;10.50;99.90
13264;DHT22;6700;51.988;7.646;2023-11-19T20:12:33;10.50;99.90
13264;DHT22;6700;51.988;7.646;2023-11-19T20:15:00;10.50;99.90
13264;DHT22;6700;51.988;7.646;2023-11-19T20:17:27;10.50;99.90
13264;DHT22;6700;51.988;7.646;2023-11-19T20:19:55;10.50;99.90
13264;DHT22;6700;51.988;7.646;2023-11-19T20:22:22;10.50;99.90
13264;DHT22;6700;51.988;7.646;2023-11-19T20:24:48;10.50;99.90
13264;DHT22;6700;51.988;7.646;2023-11-19T20:27:15;10.50;99.90
13264;DHT22;6700;51.988;7.646;2023-11-19T20:29:46;10.50;99.90
13264;DHT22;6700;51.988;7.646;2023-11-19T20:32:13;10.50;99.90
13264;DHT22;6700;51.988;7.646;2023-11-19T20:34:40;10.50;99.90
13264;DHT22;6700;51.988;7.646;2023-11-19T20:37:07;10.50;99.90
13264;DHT22;6700;51.988;7.646;2023-11-19T20:39:33;10.50;99.90
13264;DHT22;6700;51.988;7.646;2023-11-19T20:42:00;10.50;99.90
13264;DHT22;6700;51.988;7.646;2023-11-19T20:44:28;10.50;99.90
13264;DHT22;6700;51.988;7.646;2023-11-19T20:46:55;10.50;99.90
13264;DHT22;6700;51.988;7.646;2023-11-19T20:49:22;10.50;99.90
13264;DHT22;6700;51.988;7.646;2023-11-19T20:51:49;10.50;99.90
13264;DHT22;6700;51.988;7.646;2023-11-19T20:54:16;10.50;99.90
13264;DHT22;6700;51.988;7.646;2023-11-19T20:56:43;10.50;99.90
13264;DHT22;6700;51.988;7.646;2023-11-19T20:59:09;10.50;99.90
13264;DHT22;6700;51.988;7.646;2023-11-19T21:01:36;10.50;99.90
13264;DHT22;6700;51.988;7.646;2023-11-19T21:04:03;10.50;99.90
13264;DHT22;6700;51.988;7.646;2023-11-19T21:06:30;10.60;99.90
13264;DHT22;6700;51.988;7.646;2023-11-19T21:09:19;10.60;99.90
13264;DHT22;6700;51.988;7.646;2023-11-19T21:11:46;10.50;99.90
13264;DHT22;6700;51.988;7.646;2023-11-19T21:14:12;10.50;99.90
13264;DHT22;6700;51.988;7.646;2023-11-19T21:16:40;10.60;99.90
13264;DHT22;6700;51.988;7.646;2023-11-19T21:19:07;10.60;99.90
13264;DHT22;6700;51.988;7.646;2023-11-19T21:21:35;10.60;99.90
13264;DHT22;6700;51.988;7.646;2023-11-19T21:24:05;10.60;99.90
13264;DHT22;6700;51.988;7.646;2023-11-19T21:26:33;10.60;99.90
13264;DHT22;6700;51.988;7.646;2023-11-19T21:28:59;10.60;99.90
13264;DHT22;6700;51.988;7.646;2023-11-19T21:31:26;10.60;99.90
13264;DHT22;6700;51.988;7.646;2023-11-19T21:33:53;10.60;99.90
13264;DHT22;6700;51.988;7.646;2023-11-19T21:36:19;10.60;99.90
13264;DHT22;6700;51.988;7.646;2023-11-19T21:38:47;10.60;99.90
13264;DHT22;6700;51.988;7.646;2023-11-19T21:41:14;10.60;99.90
13264;DHT22;6700;51.988;7.646;2023-11-19T21:43:40;10.60;99.90
13264;DHT22;6700;51.988;7.646;2023-11-19T21:46:27;10.60;99.90
13264;DHT22;6700;51.988;7.646;2023-11-19T21:48:53;10.60;99.90
13264;DHT22;6700;51.988;7.646;2023-11-19T21:51:20;10.60;99.90
13264;DHT22;6700;51.988;7.646;2023-11-19T21:53:47;10.60;99.90
13264;DHT22;6700;51.988;7.646;2023-11-19T21:56:14;10.60;99.90
13264;DHT22;6700;51.988;7.646;2023-11-19T21:58:40;10.60;99.90
13264;DHT22;6700;51.988;7.646;2023-11-19T22:01:07;10.60;99.90
13264;DHT22;6700;51.988;7.646;2023-11-19T22:03:34;10.60;99.90
13264;DHT22;6700;51.988;7.646;2023-11-19T22:06:01;10.70;99.90
13264;DHT22;6700;51.988;7.646;2023-11-19T22:08:28;10.60;99.90
13264;DHT22;6700;51.988;7.646;2023-11-19T22:10:56;10.60;99.90
13264;DHT22;6700;51.988;7.646;2023-11-19T22:13:24;10.70;99.90
13264;DHT22;6700;51.988;7.646;2023-11-19T22:15:50;10.70;99.90
13264;DHT22;6700;51.988;7.646;2023-11-19T22:18:17;10.70;99.90
13264;DHT22;6700;51.988;7.646;2023-11-19T22:20:44;10.70;99.90
13264;DHT22;6700;51.988;7.646;2023-11-19T22:23:10;10.70;99.90
13264;DHT22;6700;51.988;7.646;2023-11-19T22:25:37;10.70;99.90
13264;DHT22;6700;51.988;7.646;2023-11-19T22:28:04;10.70;99.90
13264;DHT22;6700;51.988;7.646;2023-11-19T22:30:30;10.70;99.90
13264;DHT22;6700;51.988;7.646;2023-11-19T22:32:57;10.70;99.90
13264;DHT22;6700;51.988;7.646;2023-11-19T22:35:24;10.80;99.90
13264;DHT22;6700;51.988;7.646;2023-11-19T22:37:52;10.80;99.90
13264;DHT22;6700;51.988;7.646;2023-11-19T22:40:18;10.80;99.90
13264;DHT22;6700;51.988;7.646;2023-11-19T22:42:45;10.80;99.90
13264;DHT22;6700;51.988;7.646;2023-11-19T22:45:12;10.80;99.90
13264;DHT22;6700;51.988;7.646;2023-11-19T22:47:39;10.80;99.90
13264;DHT22;6700;51.988;7.646;2023-11-19T22:50:06;10.80;99.90
13264;DHT22;6700;51.988;7.646;2023-11-19T22:52:33;10.80;99.90
13264;DHT22;6700;51.988;7.646;2023-11-19T22:55:00;10.80;99.90
13264;DHT22;6700;51.988;7.646;2023-11-19T22:57:26;10.80;99.90
13264;DHT22;6700;51.988;7.646;2023-11-19T22:59:53;10.80;99.90
13264;DHT22;6700;51.988;7.646;2023-11-19T23:02:20;10.80;99.90
13264;DHT22;6700;51.988;7.646;2023-11-19T23:04:46;10.80;99.90
13264;DHT22;6700;51.988;7.646;2023-11-19T23:07:13;10.80;99.90
13264;DHT22;6700;51.988;7.646;2023-11-19T23:09:40;10.80;99.90
13264;DHT22;6700;51.988;7.646;2023-11-19T23:12:07;10.80;99.90
13264;DHT22;6700;51.988;7.646;2023-11-19T23:14:34;10.80;99.90
13264;DHT22;6700;51.988;7.646;2023-11-19T23:17:00;10.80;99.90
13264;DHT22;6700;51.988;7.646;2023-11-19T23:19:27;10.80;99.90
13264;DHT22;6700;51.988;7.646;2023-11-19T23:21:54;10.80;99.90
13264;DHT22;6700;51.988;7.646;2023-11-19T23:24:21;10.80;99.90
13264;DHT22;6700;51.988;7.646;2023-11-19T23:26:47;10.90;99.90
13264;DHT22;6700;51.988;7.646;2023-11-19T23:29:14;10.90;99.90
13264;DHT22;6700;51.988;7.646;2023-11-19T23:31:43;10.90;99.90
13264;DHT22;6700;51.988;7.646;2023-11-19T23:34:11;10.90;99.90
13264;DHT22;6700;51.988;7.646;2023-11-19T23:36:37;10.90;99.90
13264;DHT22;6700;51.988;7.646;2023-11-19T23:39:04;10.90;99.90
13264;DHT22;6700;51.988;7.646;2023-11-19T23:41:33;10.90;99.90
13264;DHT22;6700;51.988;7.646;2023-11-19T23:43:59;10.90;99.90
13264;DHT22;6700;51.988;7.646;2023-11-19T23:46:26;10.90;99.90
13264;DHT22;6700;51.988;7.646;2023-11-19T23:48:53;10.90;99.90
13264;DHT22;6700;51.988;7.646;2023-11-19T23:51:24;10.90;99.90
13264;DHT22;6700;51.988;7.646;2023-11-19T23:53:51;10.90;99.90
13264;DHT22;6700;51.988;7.646;2023-11-19T23:56:19;10.90;99.90
13264;DHT22;6700;51.988;7.646;2023-11-19T23:58:46;10.90;99.90
